Time;durP1;ratioP1;P1;durP2;ratioP2;P2;SDS_P1;SDS_P2;PMS_P1;PMS_P2;Temp;Humidity;BMP_temperature;BMP_pressure;BME280_temperature;BME280_humidity;BME280_pressure;Samples;Min_cycle;Max_cycle;Signal;HPM_P1;HPM_P2
2023/04/11 00:01:53;;;;;;;31.60;22.27;;;;;;;10.42;57.94;99248.94;4440701;32;34838;-77
2023/04/11 00:04:21;;;;;;;35.30;23.62;;;;;;;10.10;59.11;99238.91;4436043;32;34304;-78
2023/04/11 00:06:49;;;;;;;33.22;22.33;;;;;;;9.97;59.46;99249.94;4435684;32;33644;-78
2023/04/11 00:09:16;;;;;;;33.85;22.67;;;;;;;10.24;58.75;99242.59;4435826;32;33689;-79
2023/04/11 00:11:44;;;;;;;36.20;24.42;;;;;;;10.17;58.62;99243.34;4437485;32;34204;-77
2023/04/11 00:14:12;;;;;;;34.22;23.40;;;;;;;10.04;58.99;99237.94;4435918;32;34025;-77
2023/04/11 00:16:40;;;;;;;34.97;23.50;;;;;;;10.03;59.17;99229.31;4435346;32;34436;-78
2023/04/11 00:19:11;;;;;;;34.67;22.62;;;;;;;10.30;58.43;99226.28;4435896;32;34102;-78
2023/04/11 00:21:38;;;;;;;33.67;23.23;;;;;;;10.31;58.16;99224.59;4437220;32;33833;-79
2023/04/11 00:24:07;;;;;;;36.13;23.52;;;;;;;10.28;58.29;99227.12;4434755;32;33770;-78
2023/04/11 00:26:34;;;;;;;34.80;23.60;;;;;;;10.26;58.19;99221.03;4421905;32;33904;-77
2023/04/11 00:29:02;;;;;;;33.63;22.70;;;;;;;10.26;58.21;99226.22;4434800;32;35001;-77
2023/04/11 00:31:29;;;;;;;33.13;22.58;;;;;;;10.10;58.54;99228.56;4445838;32;35044;-78
2023/04/11 00:33:57;;;;;;;32.00;22.02;;;;;;;10.30;58.14;99225.41;4451234;32;33770;-78
2023/04/11 00:36:25;;;;;;;33.92;23.42;;;;;;;10.06;58.57;99225.91;4451283;32;33643;-78
2023/04/11 00:38:53;;;;;;;32.58;23.52;;;;;;;10.16;58.18;99215.72;4449787;32;34030;-79
2023/04/11 00:41:23;;;;;;;35.40;24.00;;;;;;;10.16;58.10;99218.31;4445912;32;33972;-78
2023/04/11 00:43:50;;;;;;;34.50;22.80;;;;;;;9.98;58.79;99218.88;4451019;32;33642;-78
2023/04/11 00:46:17;;;;;;;33.53;23.25;;;;;;;10.16;58.44;99213.12;4435744;32;34506;-79
2023/04/11 00:48:47;;;;;;;31.95;21.83;;;;;;;9.86;59.44;99205.75;4421898;32;34871;-78
2023/04/11 00:51:15;;;;;;;34.80;21.75;;;;;;;9.89;59.59;99210.09;4446771;32;34134;-78
2023/04/11 00:53:44;;;;;;;31.70;21.02;;;;;;;9.80;60.22;99207.34;4435547;32;34070;-78
2023/04/11 00:56:12;;;;;;;31.98;21.02;;;;;;;9.84;60.08;99203.97;4435186;32;34457;-78
2023/04/11 00:58:40;;;;;;;30.17;20.75;;;;;;;10.09;59.08;99203.50;4434337;32;33507;-77
2023/04/11 01:01:10;;;;;;;31.20;20.15;;;;;;;10.10;58.60;99205.25;4448062;32;34237;-78
2023/04/11 01:03:38;;;;;;;29.45;20.12;;;;;;;10.11;58.17;99204.38;4435419;32;34482;-77
2023/04/11 01:06:12;;;;;;;31.08;21.25;;;;;;;10.17;57.82;99206.22;4434681;32;33221;-79
2023/04/11 01:08:41;;;;;;;29.95;20.75;;;;;;;10.15;57.94;99201.03;4420178;32;33562;-78
2023/04/11 01:11:11;;;;;;;30.10;19.98;;;;;;;9.91;58.66;99196.31;4411516;32;34583;-79
2023/04/11 01:13:39;;;;;;;28.77;19.60;;;;;;;9.75;59.27;99200.37;4436639;32;34192;-78
2023/04/11 01:16:08;;;;;;;29.52;20.27;;;;;;;9.67;59.53;99201.09;4442035;32;33781;-78
2023/04/11 01:18:36;;;;;;;27.42;18.62;;;;;;;9.93;58.29;99194.63;4434319;32;33616;-76
2023/04/11 01:21:04;;;;;;;26.27;18.00;;;;;;;9.87;58.06;99189.34;4428650;32;34172;-78
2023/04/11 01:23:33;;;;;;;25.52;18.17;;;;;;;9.87;58.19;99193.66;4421453;32;33953;-79
2023/04/11 01:26:00;;;;;;;26.45;18.30;;;;;;;9.70;58.94;99185.63;4441183;32;33567;-79
2023/04/11 01:28:28;;;;;;;26.42;18.05;;;;;;;9.81;58.94;99183.19;4450384;32;34114;-78
2023/04/11 01:30:56;;;;;;;29.10;18.95;;;;;;;10.02;58.57;99180.06;4431791;32;34170;-78
2023/04/11 01:33:24;;;;;;;27.08;18.98;;;;;;;9.86;58.75;99181.56;4434489;32;32678;-79
2023/04/11 01:35:51;;;;;;;26.45;18.10;;;;;;;9.82;58.56;99180.66;4427198;32;33573;-78
2023/04/11 01:38:20;;;;;;;26.50;19.42;;;;;;;9.79;58.30;99178.00;4451934;32;33827;-78
2023/04/11 01:40:47;;;;;;;25.55;18.27;;;;;;;9.94;58.07;99177.37;4436812;32;33967;-79
2023/04/11 01:43:15;;;;;;;26.98;18.80;;;;;;;9.74;58.53;99183.13;4438549;32;34069;-77
2023/04/11 01:45:43;;;;;;;25.62;18.30;;;;;;;9.70;58.79;99180.44;4433100;32;32434;-79
2023/04/11 01:48:10;;;;;;;26.00;18.33;;;;;;;9.65;58.94;99172.59;4422738;32;34619;-79
2023/04/11 01:50:37;;;;;;;26.95;18.58;;;;;;;9.72;58.64;99168.38;4433958;32;35143;-78
2023/04/11 01:53:05;;;;;;;26.35;18.37;;;;;;;9.83;57.97;99177.19;4452673;32;33698;-77
2023/04/11 01:55:33;;;;;;;26.15;18.85;;;;;;;9.77;58.14;99176.22;4443100;32;32419;-78
2023/04/11 01:58:00;;;;;;;29.02;19.67;;;;;;;9.63;58.66;99170.84;4436863;32;33928;-78
2023/04/11 02:00:28;;;;;;;25.20;18.27;;;;;;;9.63;59.08;99178.59;4444040;32;34265;-77
2023/04/11 02:02:56;;;;;;;27.90;19.85;;;;;;;9.68;58.94;99171.78;4452059;32;33915;-77
2023/04/11 02:05:23;;;;;;;30.45;20.83;;;;;;;9.65;58.84;99159.66;4449318;32;33449;-78
2023/04/11 02:07:51;;;;;;;31.23;20.35;;;;;;;9.57;59.01;99169.00;4436973;32;33731;-79
2023/04/11 02:10:20;;;;;;;29.80;20.58;;;;;;;9.44;59.84;99167.06;4436505;32;34595;-80
2023/04/11 02:12:48;;;;;;;31.40;20.95;;;;;;;9.48;60.17;99155.94;4422982;32;34720;-78
2023/04/11 02:15:15;;;;;;;29.30;20.62;;;;;;;9.50;60.28;99156.81;4436679;32;33574;-78
2023/04/11 02:17:44;;;;;;;28.35;20.37;;;;;;;9.50;60.64;99159.41;4447533;32;33934;-79
2023/04/11 02:20:12;;;;;;;29.33;20.45;;;;;;;9.60;60.67;99157.84;4436694;32;35032;-78
2023/04/11 02:22:40;;;;;;;26.23;18.33;;;;;;;9.62;60.55;99153.53;4436747;32;33547;-77
2023/04/11 02:25:08;;;;;;;26.27;18.50;;;;;;;9.71;60.31;99154.56;4435566;32;33626;-79
2023/04/11 02:27:35;;;;;;;27.30;19.08;;;;;;;9.70;59.75;99155.44;4421280;32;34154;-79
2023/04/11 02:30:06;;;;;;;26.77;19.30;;;;;;;9.74;59.29;99156.34;4421256;32;34211;-77
2023/04/11 02:32:34;;;;;;;28.70;18.90;;;;;;;9.71;59.03;99149.41;4407575;32;33672;-78
2023/04/11 02:35:03;;;;;;;24.90;18.00;;;;;;;9.68;59.02;99144.16;4430254;32;33342;-78
2023/04/11 02:37:31;;;;;;;26.15;18.87;;;;;;;9.72;58.72;99151.12;4451380;32;33933;-78
2023/04/11 02:39:58;;;;;;;26.45;18.62;;;;;;;9.70;58.32;99142.50;4452087;32;33748;-78
2023/04/11 02:42:26;;;;;;;27.00;19.45;;;;;;;9.76;57.98;99139.09;4441766;32;33979;-79
2023/04/11 02:44:54;;;;;;;29.00;20.37;;;;;;;9.66;57.96;99145.88;4435958;32;33640;-78
2023/04/11 02:47:25;;;;;;;27.02;19.80;;;;;;;9.56;58.25;99138.81;4449627;32;33782;-78
2023/04/11 02:49:53;;;;;;;32.50;20.77;;;;;;;9.35;59.19;99135.84;4438399;32;34226;-79
2023/04/11 02:52:22;;;;;;;29.58;20.88;;;;;;;9.35;59.47;99141.88;4442206;32;33895;-79
2023/04/11 02:54:50;;;;;;;31.12;21.02;;;;;;;9.35;59.13;99141.88;4436753;32;34610;-80
2023/04/11 02:57:18;;;;;;;31.60;21.65;;;;;;;9.33;59.35;99143.59;4448632;32;33515;-79
2023/04/11 02:59:45;;;;;;;30.98;21.90;;;;;;;9.23;59.82;99147.72;4452126;32;34148;-79
2023/04/11 03:02:14;;;;;;;33.08;21.92;;;;;;;9.39;59.29;99153.16;4451998;32;34033;-78
2023/04/11 03:04:42;;;;;;;30.98;21.52;;;;;;;9.40;58.97;99150.62;4451976;32;33093;-78
2023/04/11 03:07:11;;;;;;;28.17;19.65;;;;;;;9.41;58.84;99146.31;4426101;32;33315;-78
2023/04/11 03:09:39;;;;;;;30.88;20.70;;;;;;;9.43;58.73;99145.50;4436445;32;34945;-78
2023/04/11 03:12:06;;;;;;;27.05;19.55;;;;;;;9.45;58.28;99150.69;4436598;32;33557;-79
2023/04/11 03:14:34;;;;;;;27.83;19.73;;;;;;;9.29;58.66;99146.97;4422146;32;32330;-78
2023/04/11 03:17:02;;;;;;;32.45;20.60;;;;;;;9.29;58.64;99149.56;4421138;32;33807;-78
2023/04/11 03:19:31;;;;;;;29.37;19.75;;;;;;;9.18;58.71;99151.97;4436556;32;34061;-78
2023/04/11 03:22:00;;;;;;;30.33;21.10;;;;;;;9.27;58.70;99148.66;4436365;32;33402;-78
2023/04/11 03:24:27;;;;;;;29.10;20.77;;;;;;;9.09;59.55;99148.31;4422764;32;34187;-80
2023/04/11 03:26:56;;;;;;;32.35;21.77;;;;;;;9.06;59.85;99146.56;4446222;32;34747;-79
2023/04/11 03:29:24;;;;;;;32.28;21.98;;;;;;;9.15;59.73;99144.12;4452185;32;33915;-78
2023/04/11 03:31:51;;;;;;;32.03;21.92;;;;;;;9.19;59.36;99140.75;4443082;32;33821;-78
2023/04/11 03:34:20;;;;;;;34.45;23.40;;;;;;;9.20;59.29;99137.31;4436329;32;34289;-78
2023/04/11 03:36:50;;;;;;;30.20;21.67;;;;;;;9.21;59.07;99136.50;4445676;32;34378;-78
2023/04/11 03:39:20;;;;;;;31.95;21.08;;;;;;;9.20;58.58;99137.31;4452026;32;34022;-78
2023/04/11 03:41:48;;;;;;;30.88;21.35;;;;;;;9.01;59.24;99138.69;4429255;32;34157;-77
2023/04/11 03:44:16;;;;;;;29.92;20.98;;;;;;;9.27;58.50;99138.31;4436105;32;33737;-77
2023/04/11 03:46:44;;;;;;;30.75;21.00;;;;;;;9.14;58.66;99132.06;4444986;32;33734;-78
2023/04/11 03:49:12;;;;;;;30.17;21.02;;;;;;;9.21;58.47;99130.44;4437726;32;34219;-77
2023/04/11 03:51:40;;;;;;;30.00;20.92;;;;;;;9.11;58.63;99126.81;4451606;32;33937;-79
2023/04/11 03:54:08;;;;;;;31.70;22.10;;;;;;;8.91;59.20;99128.19;4437858;32;33470;-78
2023/04/11 03:56:35;;;;;;;30.20;20.88;;;;;;;9.02;59.02;99126.66;4449096;32;34680;-78
2023/04/11 03:59:03;;;;;;;29.17;20.27;;;;;;;9.06;58.84;99127.59;4436320;32;34213;-78
2023/04/11 04:01:32;;;;;;;29.65;20.70;;;;;;;8.94;59.25;99136.88;4447148;32;33490;-78
2023/04/11 04:04:00;;;;;;;29.65;21.40;;;;;;;8.86;59.47;99125.47;4440182;32;32841;-78
2023/04/11 04:06:29;;;;;;;30.70;21.40;;;;;;;8.75;59.93;99121.81;4435861;32;33735;-78
2023/04/11 04:08:58;;;;;;;28.80;20.95;;;;;;;8.83;59.70;99114.25;4435001;32;33680;-76
2023/04/11 04:11:28;;;;;;;32.08;22.75;;;;;;;8.85;59.48;99120.31;4420807;32;34260;-78
2023/04/11 04:13:56;;;;;;;29.92;20.98;;;;;;;8.84;59.62;99116.84;4435435;32;34262;-79
2023/04/11 04:16:24;;;;;;;32.80;22.65;;;;;;;8.77;60.05;99112.41;4451673;32;33784;-78
2023/04/11 04:18:52;;;;;;;31.52;22.80;;;;;;;8.87;59.78;99113.47;4451514;32;33860;-79
2023/04/11 04:21:20;;;;;;;31.62;23.00;;;;;;;8.65;61.06;99120.78;4440926;32;33933;-78
2023/04/11 04:23:50;;;;;;;31.17;22.37;;;;;;;8.64;61.15;99119.06;4436243;32;31939;-79
2023/04/11 04:26:23;;;;;;;35.17;23.52;;;;;;;8.59;61.42;99118.06;4451285;32;34577;-78
2023/04/11 04:28:52;;;;;;;36.05;23.92;;;;;;;8.88;60.34;99113.47;4451463;32;34236;-78
2023/04/11 04:31:24;;;;;;;34.83;24.92;;;;;;;8.88;60.27;99122.94;4441204;32;34910;-78
2023/04/11 04:33:57;;;;;;;31.90;23.73;;;;;;;9.02;59.93;99119.78;4450771;32;34480;-79
2023/04/11 04:36:25;;;;;;;33.45;24.73;;;;;;;9.15;59.67;99118.28;4451143;32;34089;-78
2023/04/11 04:38:55;;;;;;;37.10;26.15;;;;;;;9.06;59.80;99114.66;4437089;32;34647;-79
2023/04/11 04:41:22;;;;;;;37.70;25.70;;;;;;;9.17;59.63;99111.41;4435042;32;33950;-78
2023/04/11 04:43:56;;;;;;;40.63;27.87;;;;;;;9.04;60.73;99114.63;4436719;32;33396;-79
2023/04/11 04:46:25;;;;;;;37.90;26.40;;;;;;;9.06;61.39;99112.94;4421497;32;34646;-77
2023/04/11 04:48:53;;;;;;;40.63;27.17;;;;;;;9.57;61.35;99104.31;4435633;32;33918;-77
2023/04/11 04:51:21;;;;;;;36.80;26.62;;;;;;;9.97;60.26;99102.31;4448759;32;33625;-78
2023/04/11 04:53:49;;;;;;;37.35;25.35;;;;;;;10.36;59.49;99101.13;4437858;32;33924;-77
2023/04/11 04:56:17;;;;;;;35.92;25.98;;;;;;;10.61;58.54;99099.72;4441015;32;33990;-78
2023/04/11 04:58:46;;;;;;;35.67;23.33;;;;;;;10.69;59.49;99101.53;4421524;32;33897;-79
2023/04/11 05:01:15;;;;;;;34.88;22.65;;;;;;;10.85;59.52;99099.97;4444436;32;33895;-78
2023/04/11 05:03:45;;;;;;;32.90;22.20;;;;;;;11.57;57.81;99094.56;4447983;32;34137;-79
2023/04/11 05:06:13;;;;;;;33.13;22.62;;;;;;;11.83;56.08;99086.97;4450808;32;34946;-77
2023/04/11 05:08:42;;;;;;;28.80;20.17;;;;;;;12.09;55.75;99093.22;4436534;32;34899;-78
2023/04/11 05:11:10;;;;;;;31.25;21.02;;;;;;;12.49;54.62;99088.19;4442395;32;34230;-78
2023/04/11 05:13:38;;;;;;;27.20;18.73;;;;;;;12.71;53.81;99083.06;4443063;32;34192;-77
2023/04/11 05:16:06;;;;;;;28.17;18.92;;;;;;;12.90;53.25;99092.66;4437253;32;34095;-78
2023/04/11 05:18:34;;;;;;;30.92;21.85;;;;;;;13.04;53.47;99097.88;4435698;32;33683;-78
2023/04/11 05:21:04;;;;;;;33.15;22.98;;;;;;;13.35;52.48;99080.59;4437220;32;33856;-79
2023/04/11 05:23:32;;;;;;;35.58;24.55;;;;;;;13.06;54.08;99078.78;4437875;32;34593;-79
2023/04/11 05:26:00;;;;;;;32.55;21.85;;;;;;;12.91;55.29;99078.75;4436250;32;34056;-77
2023/04/11 05:28:30;;;;;;;32.33;22.37;;;;;;;13.51;53.45;99077.09;4424479;32;33811;-77
2023/04/11 05:30:57;;;;;;;30.83;22.08;;;;;;;13.92;52.69;99078.78;4437364;32;33893;-79
2023/04/11 05:33:25;;;;;;;33.83;22.92;;;;;;;14.18;51.40;99081.34;4436926;32;34571;-77
2023/04/11 05:35:54;;;;;;;36.95;23.77;;;;;;;13.66;53.48;99075.38;4437269;32;34536;-79
2023/04/11 05:38:23;;;;;;;37.50;24.10;;;;;;;13.44;55.03;99080.59;4438951;32;34104;-79
2023/04/11 05:40:51;;;;;;;35.38;24.23;;;;;;;14.07;53.23;99083.97;4436934;32;33960;-79
2023/04/11 05:43:18;;;;;;;34.92;20.80;;;;;;;13.51;55.29;99084.06;4436529;32;33870;-78
2023/04/11 05:45:46;;;;;;;32.67;21.23;;;;;;;13.04;56.21;99083.12;4436591;32;34885;-78
2023/04/11 05:48:18;;;;;;;33.22;22.25;;;;;;;13.53;54.94;99070.19;4437804;32;34941;-79
2023/04/11 05:50:47;;;;;;;29.17;20.40;;;;;;;13.50;54.04;99075.38;4437197;32;34889;-78
2023/04/11 05:53:14;;;;;;;32.28;20.75;;;;;;;13.54;53.51;99073.66;4438077;32;33098;-79
2023/04/11 05:55:43;;;;;;;30.00;20.48;;;;;;;12.85;55.27;99070.97;4452593;32;33657;-78
2023/04/11 05:58:10;;;;;;;30.52;19.08;;;;;;;13.43;54.08;99052.81;4442925;32;34756;-80
2023/04/11 06:00:38;;;;;;;29.52;19.30;;;;;;;13.55;53.44;99058.00;4436827;32;33995;-80
2023/04/11 06:03:06;;;;;;;31.87;18.90;;;;;;;13.49;52.92;99058.03;4437936;32;33507;-79
2023/04/11 06:05:35;;;;;;;28.08;19.40;;;;;;;12.62;55.83;99066.56;4438524;32;33894;-80
2023/04/11 06:08:04;;;;;;;29.80;18.35;;;;;;;12.39;57.66;99066.50;4429720;32;34451;-79
2023/04/11 06:10:32;;;;;;;33.78;19.48;;;;;;;12.43;56.69;99059.59;4437109;32;33845;-79
2023/04/11 06:13:08;;;;;;;26.55;18.37;;;;;;;12.32;57.18;99061.28;4437133;32;33025;-79
2023/04/11 06:15:36;;;;;;;29.83;18.95;;;;;;;12.77;56.42;99060.53;4436812;32;33820;-80
2023/04/11 06:18:04;;;;;;;27.85;18.77;;;;;;;13.01;55.65;99058.84;4430692;32;34378;-78
2023/04/11 06:20:31;;;;;;;27.90;18.12;;;;;;;13.22;54.93;99057.97;4452509;32;33386;-79
2023/04/11 06:23:00;;;;;;;27.80;18.08;;;;;;;13.28;54.70;99051.06;4430878;32;33604;-78
2023/04/11 06:25:27;;;;;;;28.48;19.05;;;;;;;13.07;54.91;99049.31;4423098;32;33489;-79
2023/04/11 06:27:56;;;;;;;34.63;19.85;;;;;;;13.05;55.22;99045.81;4438051;32;34145;-78
2023/04/11 06:30:24;;;;;;;28.62;20.15;;;;;;;12.89;55.05;99044.94;4436478;32;34649;-80
2023/04/11 06:32:51;;;;;;;31.00;18.90;;;;;;;13.34;54.76;99037.19;4445512;32;33500;-78
2023/04/11 06:35:23;;;;;;;28.77;19.40;;;;;;;13.55;54.41;99042.38;4451997;32;34785;-79
2023/04/11 06:37:51;;;;;;;27.08;18.70;;;;;;;12.89;55.59;99033.69;4439712;32;35657;-79
2023/04/11 06:40:19;;;;;;;27.67;18.02;;;;;;;13.22;54.52;99035.44;4444819;32;34315;-80
2023/04/11 06:42:46;;;;;;;26.83;17.98;;;;;;;13.05;55.73;99034.56;4451893;32;33604;-79
2023/04/11 06:45:15;;;;;;;26.37;16.70;;;;;;;12.99;55.70;99045.81;4446505;32;34766;-80
2023/04/11 06:47:42;;;;;;;25.88;16.45;;;;;;;12.97;55.49;99037.16;4443357;32;34050;-80
2023/04/11 06:50:10;;;;;;;24.77;16.70;;;;;;;13.43;54.87;99037.19;4443598;32;34625;-79
2023/04/11 06:52:37;;;;;;;25.70;15.77;;;;;;;13.25;54.46;99038.06;4437363;32;33224;-80
2023/04/11 06:55:06;;;;;;;22.35;14.07;;;;;;;13.13;55.42;99038.03;4422419;32;34018;-80
2023/04/11 06:57:33;;;;;;;16.25;11.20;;;;;;;13.51;54.79;99035.44;4445111;32;34143;-80
2023/04/11 07:00:03;;;;;;;22.48;12.00;;;;;;;13.77;52.74;99031.94;4435926;32;35458;-80
2023/04/11 07:02:30;;;;;;;21.45;14.05;;;;;;;13.92;52.79;99033.63;4435679;32;33549;-78
2023/04/11 07:04:58;;;;;;;21.45;12.60;;;;;;;13.73;53.25;99038.88;4436205;32;33610;-80
2023/04/11 07:07:26;;;;;;;21.50;13.20;;;;;;;13.94;52.87;99031.88;4435950;32;33832;-79
2023/04/11 07:09:53;;;;;;;23.00;14.43;;;;;;;13.49;52.95;99034.59;4436654;32;33641;-80
2023/04/11 07:12:23;;;;;;;22.05;12.07;;;;;;;13.17;54.57;99028.47;4442053;32;33462;-79
2023/04/11 07:14:51;;;;;;;22.73;14.70;;;;;;;13.59;52.51;99023.25;4442559;32;34211;-80
2023/04/11 07:17:18;;;;;;;23.45;15.57;;;;;;;13.93;52.29;99012.75;4450284;32;34030;-80
2023/04/11 07:19:45;;;;;;;22.13;13.62;;;;;;;14.34;51.73;99009.13;4448098;32;33372;-80
2023/04/11 07:22:13;;;;;;;24.87;16.92;;;;;;;14.42;51.29;99015.16;4439569;32;33494;-80
2023/04/11 07:24:42;;;;;;;23.17;15.65;;;;;;;14.45;51.02;99016.91;4436297;32;34763;-79
2023/04/11 07:27:12;;;;;;;29.77;19.02;;;;;;;14.61;50.46;99013.34;4445453;32;34928;-79
2023/04/11 07:29:40;;;;;;;28.73;18.60;;;;;;;14.27;51.81;99018.72;4438489;32;34507;-79
2023/04/11 07:32:07;;;;;;;25.80;16.83;;;;;;;14.16;51.93;99012.69;4446868;32;34197;-80
2023/04/11 07:34:35;;;;;;;27.83;17.25;;;;;;;14.38;51.26;99021.28;4451348;32;34807;-79
2023/04/11 07:37:04;;;;;;;28.38;17.75;;;;;;;14.49;50.83;99011.69;4444933;32;34660;-79
2023/04/11 07:39:32;;;;;;;31.08;20.62;;;;;;;14.81;50.09;99008.00;4436214;32;34797;-79
2023/04/11 07:42:00;;;;;;;28.80;18.62;;;;;;;14.69;51.22;99015.91;4445429;32;34119;-80
2023/04/11 07:44:28;;;;;;;25.60;17.08;;;;;;;14.86;51.29;99027.13;4426401;32;33876;-79
2023/04/11 07:46:55;;;;;;;26.75;17.42;;;;;;;14.62;50.67;99022.91;4444242;32;34954;-80
2023/04/11 07:49:23;;;;;;;30.33;18.92;;;;;;;14.81;50.75;99023.66;4440051;32;34738;-80
2023/04/11 07:51:50;;;;;;;27.35;18.20;;;;;;;14.18;52.18;99023.13;4442638;32;33515;-80
2023/04/11 07:54:23;;;;;;;31.60;17.73;;;;;;;14.50;51.47;99020.38;4440967;32;34092;-78
2023/04/11 07:56:51;;;;;;;25.58;17.42;;;;;;;14.65;51.55;99012.47;4445860;32;34130;-81
2023/04/11 07:59:19;;;;;;;25.77;17.73;;;;;;;14.71;50.84;99007.22;4441230;32;34050;-81
2023/04/11 08:01:46;;;;;;;29.17;16.48;;;;;;;14.76;50.46;99001.97;4444150;32;33461;-80
2023/04/11 08:04:14;;;;;;;26.33;17.48;;;;;;;14.94;50.13;99007.06;4450010;32;33920;-81
2023/04/11 08:06:43;;;;;;;27.17;16.92;;;;;;;15.01;49.71;98997.44;4451471;32;34980;-80
2023/04/11 08:09:11;;;;;;;24.40;16.40;;;;;;;15.09;50.09;99001.72;4451480;32;34302;-81
2023/04/11 08:11:39;;;;;;;25.00;16.27;;;;;;;14.41;50.68;99000.41;4444057;32;34066;-80
2023/04/11 08:14:07;;;;;;;24.00;15.57;;;;;;;13.99;51.43;98997.13;4443597;32;33726;-81
2023/04/11 08:16:35;;;;;;;25.37;15.30;;;;;;;13.94;52.18;99001.50;4439453;32;34187;-80
2023/04/11 08:19:03;;;;;;;25.85;16.62;;;;;;;14.23;50.70;98984.84;4423909;32;34733;-80
2023/04/11 08:21:30;;;;;;;30.35;19.90;;;;;;;14.27;51.26;98986.56;4427137;32;33964;-80
2023/04/11 08:23:58;;;;;;;27.55;17.58;;;;;;;14.55;50.56;98976.88;4437677;32;34121;-80
2023/04/11 08:26:26;;;;;;;31.67;19.95;;;;;;;14.29;52.00;98985.69;4434323;32;34361;-80
2023/04/11 08:28:53;;;;;;;30.25;18.45;;;;;;;14.47;51.64;98974.28;4408286;32;34575;-84
2023/04/11 08:31:20;;;;;;;29.58;19.87;;;;;;;14.65;51.52;98962.88;4430672;32;33525;-79
2023/04/11 08:33:49;;;;;;;35.08;22.23;;;;;;;14.79;51.02;98961.03;4420886;32;33129;-78
2023/04/11 08:36:16;;;;;;;28.73;19.70;;;;;;;14.58;51.79;98956.87;4430603;32;34624;-81
2023/04/11 08:38:44;;;;;;;31.75;19.75;;;;;;;14.31;51.85;98956.97;4442952;32;34822;-79
2023/04/11 08:41:11;;;;;;;32.22;20.95;;;;;;;14.64;51.38;98944.66;4436410;32;32618;-78
2023/04/11 08:43:39;;;;;;;38.75;24.37;;;;;;;14.98;49.85;98940.87;4450768;32;34080;-82
2023/04/11 08:46:07;;;;;;;31.87;22.00;;;;;;;15.25;50.36;98937.16;4448866;32;34957;-78
2023/04/11 08:48:35;;;;;;;32.58;20.95;;;;;;;14.88;50.14;98934.00;4441643;32;34867;-78
2023/04/11 08:51:02;;;;;;;31.08;19.25;;;;;;;14.79;51.73;98931.47;4416698;32;33850;-80
2023/04/11 08:53:30;;;;;;;31.45;19.42;;;;;;;14.74;50.41;98928.06;4438520;32;33675;-81
2023/04/11 08:55:58;;;;;;;31.12;21.42;;;;;;;14.57;51.17;98920.34;4430871;32;34044;-83
2023/04/11 08:58:26;;;;;;;36.72;23.42;;;;;;;14.81;50.99;98916.66;4431596;32;34613;-79
2023/04/11 09:00:53;;;;;;;37.83;22.85;;;;;;;14.51;52.41;98921.25;4437778;32;33079;-79
2023/04/11 09:03:21;;;;;;;32.78;21.85;;;;;;;14.63;51.75;98916.81;4447096;32;34738;-79
2023/04/11 09:05:49;;;;;;;35.03;21.55;;;;;;;14.96;50.84;98916.53;4447765;32;34955;-83
2023/04/11 09:08:16;;;;;;;33.00;21.67;;;;;;;15.00;50.66;98913.03;4436268;32;33270;-79
2023/04/11 09:10:44;;;;;;;31.90;22.25;;;;;;;14.85;51.58;98918.41;4436680;32;33643;-81
2023/04/11 09:13:23;;;;;;;36.50;23.20;;;;;;;15.05;51.58;98915.59;4436949;32;33581;-80
2023/04/11 09:16:07;;;;;;;34.78;21.87;;;;;;;15.20;50.95;98909.38;4423351;32;35038;-81
2023/04/11 09:18:40;;;;;;;33.17;20.42;;;;;;;14.63;51.73;98902.03;4436741;32;33825;-79
2023/04/11 09:21:09;;;;;;;34.92;22.73;;;;;;;15.26;51.16;98898.84;4435788;32;34890;-79
2023/04/11 09:23:37;;;;;;;41.15;24.02;;;;;;;15.57;50.87;98902.87;4422566;32;34641;-81
2023/04/11 09:26:07;;;;;;;32.92;21.80;;;;;;;15.95;50.54;98890.25;4436749;32;35039;-80
2023/04/11 09:28:49;;;;;;;35.30;21.90;;;;;;;15.72;49.23;98887.87;4423019;32;34482;-80
2023/04/11 09:31:17;;;;;;;36.10;22.70;;;;;;;15.62;51.03;98883.66;4420884;32;33495;-79
2023/04/11 09:33:53;;;;;;;33.60;20.37;;;;;;;15.47;51.28;98880.31;4430991;32;34170;-80
2023/04/11 09:36:22;;;;;;;29.45;17.87;;;;;;;15.87;50.16;98869.41;4431928;32;34976;-77
2023/04/11 09:38:51;;;;;;;30.70;19.87;;;;;;;15.82;47.63;98873.81;4407811;32;33419;-80
2023/04/11 09:41:37;;;;;;;32.42;19.55;;;;;;;15.46;48.87;98876.00;4433835;32;33186;-81
2023/04/11 09:44:06;;;;;;;26.15;17.67;;;;;;;15.84;49.09;98882.53;4430779;32;34939;-81
2023/04/11 09:46:33;;;;;;;29.05;17.75;;;;;;;15.82;48.69;98874.69;4413461;32;34021;-79
2023/04/11 09:49:01;;;;;;;23.58;14.77;;;;;;;16.10;47.85;98870.81;4436087;32;34692;-80
2023/04/11 09:51:30;;;;;;;27.98;17.15;;;;;;;15.84;46.43;98866.84;4436089;32;34081;-78
2023/04/11 09:54:03;;;;;;;25.90;16.80;;;;;;;16.20;46.95;98854.97;4423664;32;33629;-78
2023/04/11 09:56:35;;;;;;;26.98;17.05;;;;;;;16.37;46.32;98856.50;4422716;32;33787;-78
2023/04/11 09:59:03;;;;;;;30.02;18.67;;;;;;;15.61;46.61;98856.66;4422849;32;33737;-80
2023/04/11 10:01:32;;;;;;;33.85;19.35;;;;;;;16.27;45.77;98850.53;4435601;32;33230;-80
2023/04/11 10:03:59;;;;;;;30.25;19.15;;;;;;;16.35;45.64;98848.66;4435074;32;33660;-80
2023/04/11 10:06:40;;;;;;;29.65;17.65;;;;;;;16.20;46.62;98844.53;4435535;32;34555;-79
2023/04/11 10:09:12;;;;;;;28.92;20.40;;;;;;;16.85;45.33;98836.50;4412962;32;34345;-79
2023/04/11 10:11:43;;;;;;;32.28;19.83;;;;;;;16.98;45.62;98845.03;4420456;32;33867;-80
2023/04/11 10:14:36;;;;;;;27.62;18.35;;;;;;;16.88;45.59;98846.94;4434298;32;33967;-78
2023/04/11 10:17:17;;;;;;;30.17;19.48;;;;;;;17.43;45.28;98831.94;4430728;32;34927;-78
2023/04/11 10:19:55;;;;;;;32.80;20.05;;;;;;;17.05;45.38;98835.28;4450504;32;33760;-79
2023/04/11 10:22:41;;;;;;;29.17;17.67;;;;;;;16.64;45.97;98823.78;4446803;32;33375;-82
2023/04/11 10:25:23;;;;;;;25.60;17.15;;;;;;;17.16;44.63;98817.59;4433887;32;33366;-80
2023/04/11 10:27:53;;;;;;;23.95;15.82;;;;;;;16.91;44.63;98809.38;4421935;32;34886;-79
2023/04/11 10:30:39;;;;;;;24.95;16.17;;;;;;;16.96;45.81;98812.75;4436165;32;34879;-78
2023/04/11 10:33:11;;;;;;;31.10;18.05;;;;;;;16.38;45.53;98811.13;4443556;32;33373;-81
2023/04/11 10:35:56;;;;;;;28.25;18.00;;;;;;;17.06;44.37;98798.59;4427534;32;34144;-79
2023/04/11 10:38:39;;;;;;;28.92;16.90;;;;;;;16.95;44.35;98803.19;4435269;32;34995;-79
2023/04/11 10:41:18;;;;;;;28.08;17.50;;;;;;;17.16;43.38;98797.53;4436488;32;33672;-79
2023/04/11 10:43:46;;;;;;;29.02;18.62;;;;;;;17.33;43.29;98786.69;4422330;32;33152;-78
2023/04/11 10:46:18;;;;;;;32.08;18.80;;;;;;;17.30;44.25;98783.28;4422300;32;34487;-78
2023/04/11 10:48:59;;;;;;;24.45;17.05;;;;;;;17.68;44.63;98785.94;4435057;32;33863;-81
2023/04/11 10:51:29;;;;;;;27.95;16.80;;;;;;;17.22;43.13;98768.56;4433618;32;33185;-78
2023/04/11 10:54:00;;;;;;;27.23;16.83;;;;;;;17.72;43.19;98771.00;4430536;32;33342;-78
2023/04/11 10:56:41;;;;;;;26.73;16.40;;;;;;;17.43;44.71;98769.91;4421353;32;34900;-79
2023/04/11 10:59:31;;;;;;;22.67;14.43;;;;;;;17.81;41.85;98762.12;4434893;32;34870;-79
2023/04/11 11:02:00;;;;;;;23.70;15.65;;;;;;;18.04;41.50;98758.97;4434671;32;33881;-79
2023/04/11 11:04:35;;;;;;;21.15;13.43;;;;;;;17.95;41.35;98753.00;4430863;32;33668;-78
2023/04/11 11:07:05;;;;;;;27.17;18.00;;;;;;;17.89;40.40;98761.03;4434846;32;33627;-79
2023/04/11 11:09:33;;;;;;;20.33;12.60;;;;;;;17.91;41.22;98746.13;4433246;32;33824;-78
2023/04/11 11:12:05;;;;;;;19.75;13.43;;;;;;;17.76;39.35;98756.97;4432667;32;33927;-79
2023/04/11 11:14:33;;;;;;;20.20;12.90;;;;;;;18.07;40.51;98737.88;4433707;32;34987;-79
2023/04/11 11:17:01;;;;;;;19.87;12.40;;;;;;;18.48;39.73;98731.59;4418032;32;33030;-79
2023/04/11 11:19:30;;;;;;;19.95;12.95;;;;;;;18.39;38.96;98737.94;4447899;32;34254;-78
2023/04/11 11:22:06;;;;;;;19.58;12.40;;;;;;;18.28;39.62;98726.84;4422497;32;33707;-79
2023/04/11 11:24:34;;;;;;;20.52;13.43;;;;;;;18.15;38.56;98734.19;4424835;32;32908;-81
2023/04/11 11:27:02;;;;;;;20.75;12.50;;;;;;;17.97;39.12;98730.25;4433431;32;33823;-79
2023/04/11 11:29:32;;;;;;;20.85;12.70;;;;;;;18.14;38.69;98721.09;4434144;32;35218;-80